createdAt,value
2019-03-22T00:00:09.945Z,15.20
2019-03-22T00:02:37.433Z,12.37
2019-03-22T00:05:04.883Z,14.63
2019-03-22T00:07:32.432Z,13.07
2019-03-22T00:10:00.755Z,14.40
2019-03-22T00:12:28.230Z,12.10
2019-03-22T00:14:55.709Z,13.77
2019-03-22T00:17:23.227Z,13.03
2019-03-22T00:19:50.684Z,18.40
2019-03-22T00:22:18.155Z,13.03
2019-03-22T00:24:45.714Z,19.07
2019-03-22T00:27:16.672Z,13.70
2019-03-22T00:29:40.843Z,13.90
2019-03-22T00:32:08.358Z,13.47
2019-03-22T00:34:35.846Z,12.07
2019-03-22T00:37:03.304Z,12.77
2019-03-22T00:39:31.008Z,13.43
2019-03-22T00:41:58.678Z,12.40
2019-03-22T00:44:26.178Z,12.07
2019-03-22T00:46:53.619Z,14.93
2019-03-22T00:49:21.094Z,14.17
2019-03-22T00:51:48.559Z,14.15
2019-03-22T00:54:16.013Z,13.37
2019-03-22T00:56:43.525Z,12.13
2019-03-22T00:59:10.997Z,14.93
2019-03-22T01:01:38.508Z,12.23
2019-03-22T01:04:06.072Z,12.70
2019-03-22T01:06:33.559Z,14.03
2019-03-22T01:09:01.033Z,15.63
2019-03-22T01:11:28.553Z,14.30
2019-03-22T01:13:56.062Z,13.17
2019-03-22T01:16:23.532Z,13.20
2019-03-22T01:18:51.087Z,15.30
2019-03-22T01:21:18.585Z,13.03
2019-03-22T01:23:46.105Z,12.63
2019-03-22T01:26:13.602Z,12.02
2019-03-22T01:28:41.089Z,13.80
2019-03-22T01:31:08.643Z,11.75
2019-03-22T01:33:36.988Z,13.02
2019-03-22T01:36:04.448Z,11.17
2019-03-22T01:38:32.059Z,12.77
2019-03-22T01:40:59.873Z,12.83
2019-03-22T01:43:27.310Z,11.80
2019-03-22T01:45:54.816Z,17.13
2019-03-22T01:48:22.280Z,13.20
2019-03-22T01:50:49.778Z,12.80
2019-03-22T01:53:17.260Z,12.50
2019-03-22T01:55:44.766Z,15.13
2019-03-22T01:58:12.245Z,12.50
2019-03-22T02:00:39.735Z,13.07
2019-03-22T02:03:07.327Z,13.10
2019-03-22T02:05:34.777Z,14.03
2019-03-22T02:08:02.469Z,14.27
2019-03-22T02:10:29.908Z,16.43
2019-03-22T02:12:57.359Z,14.00
2019-03-22T02:15:24.817Z,17.50
2019-03-22T02:17:52.280Z,13.30
2019-03-22T02:20:19.724Z,15.07
2019-03-22T02:22:47.205Z,15.18
2019-03-22T02:25:14.660Z,15.60
2019-03-22T02:27:42.132Z,13.88
2019-03-22T02:30:10.218Z,16.60
2019-03-22T02:32:37.684Z,13.33
2019-03-22T02:35:05.173Z,16.20
2019-03-22T02:37:32.617Z,14.27
2019-03-22T02:40:00.492Z,14.73
2019-03-22T02:42:28.710Z,15.17
2019-03-22T02:44:56.183Z,16.67
2019-03-22T02:47:23.641Z,14.53
2019-03-22T02:49:51.115Z,14.50
2019-03-22T02:52:18.606Z,14.77
2019-03-22T02:54:46.069Z,15.20
2019-03-22T02:57:13.537Z,13.50
2019-03-22T02:59:41.032Z,16.40
2019-03-22T03:02:08.518Z,16.23
2019-03-22T03:04:35.969Z,15.63
2019-03-22T03:07:03.450Z,18.40
2019-03-22T03:09:30.927Z,15.93
2019-03-22T03:11:58.413Z,17.63
2019-03-22T03:14:25.931Z,18.55
2019-03-22T03:16:53.373Z,16.17
2019-03-22T03:19:20.824Z,17.90
2019-03-22T03:21:48.317Z,14.27
2019-03-22T03:24:15.811Z,16.20
2019-03-22T03:26:43.257Z,15.07
2019-03-22T03:29:10.772Z,14.87
2019-03-22T03:31:38.879Z,13.53
2019-03-22T03:34:06.354Z,14.47
2019-03-22T03:36:35.090Z,15.47
2019-03-22T03:39:01.331Z,14.83
2019-03-22T03:41:28.808Z,15.73
2019-03-22T03:43:56.249Z,16.10
2019-03-22T03:46:23.747Z,15.57
2019-03-22T03:48:51.238Z,16.42
2019-03-22T03:51:18.739Z,16.43
2019-03-22T03:53:46.225Z,15.57
2019-03-22T03:56:13.710Z,16.03
2019-03-22T03:58:52.190Z,16.63
2019-03-22T04:01:09.555Z,13.73
2019-03-22T04:03:37.026Z,15.50
2019-03-22T04:06:04.530Z,14.30
2019-03-22T04:08:32.025Z,15.70
2019-03-22T04:10:59.463Z,16.58
2019-03-22T04:13:26.948Z,16.87
2019-03-22T04:15:54.398Z,13.87
2019-03-22T04:18:21.872Z,13.70
2019-03-22T04:20:49.355Z,17.93
2019-03-22T04:23:16.844Z,14.93
2019-03-22T04:25:44.338Z,16.98
2019-03-22T04:28:11.843Z,15.57
2019-03-22T04:30:40.023Z,15.33
2019-03-22T04:33:07.516Z,15.33
2019-03-22T04:35:34.987Z,16.73
2019-03-22T04:38:02.454Z,16.43
2019-03-22T04:40:29.971Z,15.93
2019-03-22T04:42:57.475Z,16.80
2019-03-22T04:45:24.983Z,15.33
2019-03-22T04:47:54.133Z,13.27
2019-03-22T04:50:21.600Z,13.97
2019-03-22T04:52:49.068Z,11.87
2019-03-22T04:55:16.543Z,12.23
2019-03-22T04:57:44.027Z,13.67
2019-03-22T05:00:11.601Z,11.73
2019-03-22T05:02:39.080Z,11.20
2019-03-22T05:05:06.601Z,9.90
2019-03-22T05:07:34.125Z,11.03
2019-03-22T05:10:01.603Z,10.57
2019-03-22T05:12:29.083Z,10.83
2019-03-22T05:14:56.551Z,13.07
2019-03-22T05:17:24.019Z,13.33
2019-03-22T05:19:51.524Z,11.00
2019-03-22T05:22:18.997Z,10.27
2019-03-22T05:24:46.460Z,9.00
2019-03-22T05:27:13.906Z,12.13
2019-03-22T05:29:41.391Z,9.97
2019-03-22T05:32:10.593Z,13.80
2019-03-22T05:34:38.059Z,10.00
2019-03-22T05:37:05.511Z,12.13
2019-03-22T05:39:32.955Z,11.37
2019-03-22T05:42:00.439Z,10.63
2019-03-22T05:44:27.889Z,10.53
2019-03-22T05:46:55.383Z,10.50
2019-03-22T05:49:22.860Z,10.13
2019-03-22T05:51:50.317Z,9.93
2019-03-22T05:54:17.806Z,9.10
2019-03-22T05:56:45.870Z,10.33
2019-03-22T05:59:14.331Z,9.03
2019-03-22T06:01:41.958Z,8.67
2019-03-22T06:04:09.445Z,8.90
2019-03-22T06:06:36.941Z,11.57
2019-03-22T06:09:04.381Z,9.70
2019-03-22T06:11:31.859Z,12.03
2019-03-22T06:13:59.309Z,9.10
2019-03-22T06:16:26.814Z,12.83
2019-03-22T06:18:54.292Z,10.03
2019-03-22T06:21:21.785Z,8.35
2019-03-22T06:23:49.251Z,11.20
2019-03-22T06:26:16.705Z,9.53
2019-03-22T06:28:44.138Z,7.77
2019-03-22T06:31:12.632Z,9.88
2019-03-22T06:33:40.155Z,8.47
2019-03-22T06:36:07.603Z,8.97
2019-03-22T06:38:35.119Z,8.17
2019-03-22T06:41:02.583Z,8.17
2019-03-22T06:43:30.341Z,10.87
2019-03-22T06:45:57.887Z,8.67
2019-03-22T06:48:25.390Z,8.50
2019-03-22T06:50:52.854Z,7.70
2019-03-22T06:53:20.321Z,9.87
2019-03-22T06:55:47.774Z,8.07
2019-03-22T06:58:15.232Z,9.63
2019-03-22T07:00:43.313Z,7.27
2019-03-22T07:03:10.802Z,7.83
2019-03-22T07:05:38.227Z,9.97
2019-03-22T07:08:05.701Z,7.00
2019-03-22T07:10:33.167Z,7.43
2019-03-22T07:13:00.628Z,8.05
2019-03-22T07:15:29.093Z,7.47
2019-03-22T07:17:56.548Z,9.60
2019-03-22T07:20:24.048Z,7.47
2019-03-22T07:22:51.548Z,7.57
2019-03-22T07:25:19.043Z,7.80
2019-03-22T07:27:47.768Z,6.87
2019-03-22T07:30:18.888Z,8.63
2019-03-22T07:32:44.615Z,8.10
2019-03-22T07:35:12.148Z,7.53
2019-03-22T07:37:39.618Z,7.77
2019-03-22T07:40:07.163Z,8.50
2019-03-22T07:42:34.696Z,7.40
2019-03-22T07:45:02.189Z,10.40
2019-03-22T07:47:29.943Z,8.73
2019-03-22T07:49:57.385Z,9.67
2019-03-22T07:52:24.970Z,11.03
2019-03-22T07:54:52.392Z,16.07
2019-03-22T07:57:19.878Z,10.90
2019-03-22T07:59:47.961Z,10.70
2019-03-22T08:02:15.434Z,9.90
2019-03-22T08:04:42.903Z,8.93
2019-03-22T08:07:10.586Z,10.73
2019-03-22T08:09:38.097Z,8.33
2019-03-22T08:12:05.631Z,8.07
2019-03-22T08:14:33.080Z,8.83
2019-03-22T08:17:00.543Z,12.23
2019-03-22T08:19:27.979Z,9.93
2019-03-22T08:21:55.438Z,8.37
2019-03-22T08:24:22.903Z,11.00
2019-03-22T08:26:50.412Z,11.73
2019-03-22T08:29:18.242Z,9.40
2019-03-22T08:31:45.724Z,7.87
2019-03-22T08:34:13.166Z,7.37
2019-03-22T08:36:40.659Z,7.43
2019-03-22T08:39:08.098Z,9.60
2019-03-22T08:41:35.560Z,7.75
2019-03-22T08:44:03.164Z,8.70
2019-03-22T08:46:30.495Z,14.45
2019-03-22T08:48:58.892Z,7.75
2019-03-22T08:51:29.555Z,7.77
2019-03-22T08:53:55.428Z,8.40
2019-03-22T08:56:21.473Z,12.40
2019-03-22T08:58:48.953Z,7.87
2019-03-22T09:01:16.381Z,8.03
2019-03-22T09:03:43.815Z,7.87
2019-03-22T09:06:11.262Z,7.33
2019-03-22T09:08:38.718Z,6.37
2019-03-22T09:11:06.187Z,7.77
2019-03-22T09:13:33.609Z,9.90
2019-03-22T09:16:01.131Z,6.80
2019-03-22T09:18:28.578Z,9.97
2019-03-22T09:20:56.044Z,7.03
2019-03-22T09:23:24.304Z,8.38
2019-03-22T09:25:51.899Z,6.43
2019-03-22T09:28:19.337Z,6.70
2019-03-22T09:30:46.910Z,6.60
2019-03-22T09:33:14.386Z,10.77
2019-03-22T09:35:42.362Z,6.50
2019-03-22T09:38:13.108Z,6.93
2019-03-22T09:40:37.389Z,8.73
2019-03-22T09:43:04.893Z,9.30
2019-03-22T09:45:32.944Z,7.93
2019-03-22T09:48:00.466Z,14.15
2019-03-22T09:50:27.913Z,6.80
2019-03-22T09:52:55.394Z,7.73
2019-03-22T09:55:22.836Z,6.85
2019-03-22T09:57:50.346Z,7.73
2019-03-22T10:00:33.087Z,6.50
2019-03-22T10:03:00.565Z,6.03
2019-03-22T10:05:28.011Z,9.27
2019-03-22T10:07:55.515Z,8.55
2019-03-22T10:10:22.977Z,6.60
2019-03-22T10:12:50.471Z,8.40
2019-03-22T10:15:18.248Z,5.70
2019-03-22T10:17:45.709Z,8.60
2019-03-22T10:20:13.188Z,7.22
2019-03-22T10:22:40.625Z,6.60
2019-03-22T10:25:08.075Z,5.40
2019-03-22T10:27:35.563Z,6.17
2019-03-22T10:30:03.121Z,9.93
2019-03-22T10:32:30.489Z,6.23
2019-03-22T10:34:58.043Z,7.60
2019-03-22T10:37:25.440Z,6.10
2019-03-22T10:39:52.972Z,4.53
2019-03-22T10:42:20.389Z,5.00
2019-03-22T10:44:49.101Z,7.03
2019-03-22T10:47:18.058Z,5.47
2019-03-22T10:49:44.246Z,5.33
2019-03-22T10:52:11.720Z,5.90
2019-03-22T10:54:39.187Z,6.23
2019-03-22T10:57:07.627Z,5.37
2019-03-22T10:59:35.089Z,5.22
2019-03-22T11:02:03.860Z,4.90
2019-03-22T11:04:30.056Z,4.68
2019-03-22T11:06:57.495Z,5.10
2019-03-22T11:09:24.933Z,4.30
2019-03-22T11:11:52.386Z,4.67
2019-03-22T11:14:19.866Z,7.30
2019-03-22T11:16:48.395Z,4.53
2019-03-22T11:19:15.928Z,9.77
2019-03-22T11:21:43.369Z,5.90
2019-03-22T11:24:10.823Z,5.67
2019-03-22T11:26:38.286Z,5.28
2019-03-22T11:29:05.716Z,6.27
2019-03-22T11:31:39.774Z,5.65
2019-03-22T11:34:00.672Z,6.07
2019-03-22T11:36:28.133Z,5.57
2019-03-22T11:38:55.589Z,6.43
2019-03-22T11:41:23.021Z,5.93
2019-03-22T11:43:50.492Z,5.63
2019-03-22T11:46:19.507Z,8.68
2019-03-22T11:48:46.954Z,6.73
2019-03-22T11:51:14.415Z,5.80
2019-03-22T11:53:41.872Z,5.63
2019-03-22T11:56:09.511Z,5.80
2019-03-22T11:58:36.780Z,5.70
2019-03-22T12:01:06.177Z,5.87
2019-03-22T12:03:33.623Z,5.32
2019-03-22T12:06:01.110Z,5.50
2019-03-22T12:08:28.586Z,5.37
2019-03-22T12:10:56.052Z,5.85
2019-03-22T12:13:23.608Z,5.07
2019-03-22T12:15:51.099Z,5.25
2019-03-22T12:18:19.379Z,4.45
2019-03-22T12:20:46.849Z,5.50
2019-03-22T12:23:14.292Z,5.27
2019-03-22T12:25:41.788Z,4.33
2019-03-22T12:28:09.286Z,10.20
2019-03-22T12:30:36.795Z,5.10
2019-03-22T12:33:04.242Z,3.53
2019-03-22T12:35:32.446Z,3.60
2019-03-22T12:37:59.908Z,3.20
2019-03-22T12:40:27.622Z,4.15
2019-03-22T12:42:56.661Z,3.05
2019-03-22T12:48:12.795Z,3.87
2019-03-22T12:50:40.305Z,4.17
2019-03-22T12:53:07.745Z,3.90
2019-03-22T12:55:35.204Z,3.50
2019-03-22T12:58:02.688Z,3.97
2019-03-22T13:00:30.131Z,6.73
2019-03-22T13:02:57.588Z,4.70
2019-03-22T13:05:25.073Z,4.37
2019-03-22T13:07:52.503Z,4.47
2019-03-22T13:10:22.936Z,6.65
2019-03-22T13:12:50.428Z,5.00
2019-03-22T13:15:17.928Z,4.80
2019-03-22T13:17:45.414Z,5.73
2019-03-22T13:20:12.850Z,4.47
2019-03-22T13:22:40.372Z,4.53
2019-03-22T13:25:07.834Z,4.27
2019-03-22T13:27:35.317Z,4.10
2019-03-22T13:30:03.259Z,4.37
2019-03-22T13:32:30.788Z,3.50
2019-03-22T13:34:58.230Z,5.37
2019-03-22T13:37:25.788Z,3.33
2019-03-22T13:39:53.301Z,4.63
2019-03-22T13:42:20.964Z,4.27
2019-03-22T13:44:48.513Z,4.00
2019-03-22T13:47:15.986Z,3.70
2019-03-22T13:49:43.416Z,3.70
2019-03-22T13:52:10.881Z,4.23
2019-03-22T13:54:38.380Z,3.70
2019-03-22T13:57:05.852Z,3.60
2019-03-22T13:59:33.328Z,3.03
2019-03-22T14:02:00.845Z,2.83
2019-03-22T14:04:28.355Z,5.57
2019-03-22T14:06:55.844Z,3.37
2019-03-22T14:09:23.353Z,4.40
2019-03-22T14:11:51.406Z,3.35
2019-03-22T14:14:18.969Z,2.40
2019-03-22T14:16:46.455Z,6.13
2019-03-22T14:19:13.922Z,2.57
2019-03-22T14:21:41.355Z,2.40
2019-03-22T14:24:08.818Z,2.78
2019-03-22T14:26:36.278Z,2.53
2019-03-22T14:29:03.752Z,2.30
2019-03-22T14:31:31.203Z,2.78
2019-03-22T14:33:58.670Z,3.33
2019-03-22T14:36:26.182Z,2.80
2019-03-22T14:38:53.670Z,2.97
2019-03-22T14:41:21.978Z,5.33
2019-03-22T14:43:49.508Z,3.33
2019-03-22T14:46:16.934Z,3.40
2019-03-22T14:48:44.435Z,3.10
2019-03-22T14:51:11.882Z,4.20
2019-03-22T14:53:39.357Z,2.67
2019-03-22T14:56:06.830Z,2.97
2019-03-22T14:58:34.272Z,2.73
2019-03-22T15:01:01.780Z,2.50
2019-03-22T15:03:29.213Z,5.50
2019-03-22T15:05:56.667Z,2.30
2019-03-22T15:08:24.195Z,2.83
2019-03-22T15:10:52.555Z,3.00
2019-03-22T15:13:19.991Z,3.43
2019-03-22T15:15:49.847Z,2.70
2019-03-22T15:18:17.741Z,2.50
2019-03-22T15:20:51.063Z,2.50
2019-03-22T15:23:18.549Z,2.40
2019-03-22T15:25:57.710Z,2.13
2019-03-22T15:28:25.509Z,2.30
2019-03-22T15:31:03.784Z,2.40
2019-03-22T15:33:34.629Z,2.15
2019-03-22T15:36:17.276Z,2.20
2019-03-22T15:39:00.596Z,2.40
2019-03-22T15:41:27.920Z,2.97
2019-03-22T15:43:55.403Z,2.10
2019-03-22T15:46:23.155Z,2.67
2019-03-22T15:48:50.634Z,2.33
2019-03-22T15:51:18.099Z,2.50
2019-03-22T15:53:45.563Z,2.10
2019-03-22T15:56:13.065Z,2.10
2019-03-22T15:58:40.558Z,3.47
2019-03-22T16:01:08.018Z,2.17
2019-03-22T16:03:43.995Z,2.20
2019-03-22T16:06:03.002Z,2.17
2019-03-22T16:08:30.489Z,1.77
2019-03-22T16:10:57.947Z,2.10
2019-03-22T16:13:25.402Z,2.77
2019-03-22T16:15:53.525Z,1.77
2019-03-22T16:18:20.970Z,1.93
2019-03-22T16:20:48.435Z,1.70
2019-03-22T16:23:15.906Z,2.00
2019-03-22T16:25:43.345Z,2.83
2019-03-22T16:28:10.805Z,2.80
2019-03-22T16:30:38.329Z,2.30
2019-03-22T16:33:06.637Z,1.87
2019-03-22T16:35:34.283Z,4.30
2019-03-22T16:38:01.741Z,1.87
2019-03-22T16:40:29.204Z,1.80
2019-03-22T16:42:56.653Z,2.17
2019-03-22T16:45:30.877Z,1.60
2019-03-22T16:47:59.237Z,3.10
2019-03-22T16:50:26.843Z,2.00
2019-03-22T16:52:54.420Z,1.97
2019-03-22T16:55:23.912Z,3.77
2019-03-22T16:57:49.409Z,6.57
2019-03-22T17:00:18.823Z,2.67
2019-03-22T17:02:46.458Z,2.77
2019-03-22T17:05:15.345Z,1.93
2019-03-22T17:07:41.395Z,2.10
2019-03-22T17:10:08.851Z,2.50
2019-03-22T17:12:37.149Z,2.10
2019-03-22T17:15:04.690Z,2.13
2019-03-22T17:17:32.170Z,2.20
2019-03-22T17:19:59.619Z,2.00
2019-03-22T17:22:27.085Z,5.70
2019-03-22T17:24:55.263Z,2.28
2019-03-22T17:27:22.768Z,2.40
2019-03-22T17:29:50.240Z,2.20
2019-03-22T17:32:17.682Z,1.90
2019-03-22T17:34:45.172Z,2.00
2019-03-22T17:37:12.627Z,1.90
2019-03-22T17:39:40.120Z,3.47
2019-03-22T17:42:07.607Z,3.75
2019-03-22T17:44:35.061Z,2.50
2019-03-22T17:47:02.502Z,2.40
2019-03-22T17:49:29.995Z,2.10
2019-03-22T17:51:57.462Z,2.67
2019-03-22T17:54:24.878Z,5.43
2019-03-22T17:56:52.374Z,2.57
2019-03-22T17:59:19.823Z,2.40
2019-03-22T18:01:47.289Z,3.43
2019-03-22T18:04:23.710Z,5.30
2019-03-22T18:06:42.227Z,3.00
2019-03-22T18:09:09.660Z,6.37
2019-03-22T18:11:37.104Z,3.70
2019-03-22T18:14:06.170Z,2.13
2019-03-22T18:16:33.758Z,4.10
2019-03-22T18:19:01.213Z,6.57
2019-03-22T18:21:28.693Z,2.10
2019-03-22T18:23:56.565Z,2.20
2019-03-22T18:26:25.697Z,2.00
2019-03-22T18:28:53.178Z,1.80
2019-03-22T18:31:20.663Z,5.13
2019-03-22T18:33:48.135Z,2.20
2019-03-22T18:36:15.590Z,2.57
2019-03-22T18:38:43.042Z,3.87
2019-03-22T18:41:10.490Z,2.20
2019-03-22T18:43:37.945Z,2.20
2019-03-22T18:46:05.451Z,2.73
2019-03-22T18:48:32.899Z,3.20
2019-03-22T18:51:00.358Z,3.53
2019-03-22T18:53:27.830Z,3.67
2019-03-22T18:55:55.296Z,2.80
2019-03-22T18:58:23.771Z,2.43
2019-03-22T19:00:50.252Z,6.50
2019-03-22T19:03:17.750Z,2.57
2019-03-22T19:05:45.227Z,2.90
2019-03-22T19:08:12.711Z,5.73
2019-03-22T19:10:40.203Z,3.10
2019-03-22T19:13:08.845Z,2.93
2019-03-22T19:15:36.422Z,2.30
2019-03-22T19:18:03.857Z,2.80
2019-03-22T19:20:31.307Z,2.63
2019-03-22T19:22:58.802Z,2.30
2019-03-22T19:25:27.116Z,2.90
2019-03-22T19:27:54.651Z,3.67
2019-03-22T19:30:22.102Z,4.63
2019-03-22T19:32:49.580Z,4.07
2019-03-22T19:35:17.056Z,4.83
2019-03-22T19:37:44.507Z,5.87
2019-03-22T19:40:11.972Z,5.90
2019-03-22T19:42:39.426Z,5.40
2019-03-22T19:45:06.896Z,4.65
2019-03-22T19:47:35.307Z,4.33
2019-03-22T19:50:02.855Z,3.83
2019-03-22T19:52:30.282Z,3.65
2019-03-22T19:54:57.739Z,3.03
2019-03-22T19:57:25.198Z,3.20
2019-03-22T19:59:52.641Z,2.80
2019-03-22T20:02:20.140Z,2.77
2019-03-22T20:04:47.587Z,2.72
2019-03-22T20:07:15.057Z,2.63
2019-03-22T20:09:42.511Z,2.70
2019-03-22T20:12:09.959Z,2.73
2019-03-22T20:14:37.433Z,2.97
2019-03-22T20:17:04.883Z,2.97
2019-03-22T20:19:32.321Z,2.57
2019-03-22T20:22:00.673Z,4.05
2019-03-22T20:24:28.263Z,2.80
2019-03-22T20:26:55.704Z,6.23
2019-03-22T20:29:23.152Z,3.57
2019-03-22T20:31:50.586Z,4.30
2019-03-22T20:34:18.146Z,4.57
2019-03-22T20:36:45.630Z,4.80
2019-03-22T20:39:13.110Z,4.12
2019-03-22T20:41:40.560Z,8.97
2019-03-22T20:44:08.021Z,2.67
2019-03-22T20:46:35.456Z,2.63
2019-03-22T20:49:05.113Z,2.10
2019-03-22T20:51:30.871Z,3.97
2019-03-22T20:53:58.291Z,2.47
2019-03-22T20:56:25.727Z,2.27
2019-03-22T20:58:54.064Z,2.20
2019-03-22T21:01:21.547Z,3.10
2019-03-22T21:03:49.003Z,2.33
2019-03-22T21:06:16.805Z,2.07
2019-03-22T21:08:44.337Z,2.40
2019-03-22T21:11:11.921Z,2.50
2019-03-22T21:13:39.421Z,2.10
2019-03-22T21:16:06.870Z,6.35
2019-03-22T21:18:34.327Z,2.73
2019-03-22T21:21:01.787Z,3.57
2019-03-22T21:23:36.445Z,2.30
2019-03-22T21:25:57.238Z,5.13
2019-03-22T21:28:24.717Z,2.45
2019-03-22T21:30:52.182Z,2.70
2019-03-22T21:33:19.653Z,2.57
2019-03-22T21:35:47.101Z,2.90
2019-03-22T21:38:15.721Z,3.10
2019-03-22T21:40:42.012Z,2.67
2019-03-22T21:43:09.451Z,3.13
2019-03-22T21:45:36.927Z,3.08
2019-03-22T21:48:04.374Z,2.97
2019-03-22T21:50:32.171Z,3.80
2019-03-22T21:52:59.631Z,3.93
2019-03-22T21:55:27.094Z,4.07
2019-03-22T21:57:54.556Z,4.20
2019-03-22T22:00:22.898Z,3.63
2019-03-22T22:02:50.518Z,3.75
2019-03-22T22:05:17.983Z,3.53
2019-03-22T22:07:45.443Z,3.90
2019-03-22T22:10:12.900Z,3.87
2019-03-22T22:12:40.384Z,4.00
2019-03-22T22:15:07.826Z,3.78
2019-03-22T22:17:35.277Z,3.70
2019-03-22T22:20:02.900Z,3.70
2019-03-22T22:22:30.371Z,3.20
2019-03-22T22:24:57.807Z,3.37
2019-03-22T22:27:25.245Z,4.07
2019-03-22T22:29:53.384Z,6.10
2019-03-22T22:32:20.823Z,4.40
2019-03-22T22:34:48.302Z,3.75
2019-03-22T22:37:15.723Z,4.80
2019-03-22T22:39:44.108Z,4.23
2019-03-22T22:42:11.614Z,4.40
2019-03-22T22:44:39.046Z,4.78
2019-03-22T22:47:06.508Z,5.63
2019-03-22T22:49:33.963Z,6.73
2019-03-22T22:52:01.438Z,3.70
2019-03-22T22:54:28.895Z,3.70
2019-03-22T22:56:56.378Z,4.53
2019-03-22T22:59:23.816Z,4.80
2019-03-22T23:01:51.241Z,4.40
2019-03-22T23:04:18.711Z,5.30
2019-03-22T23:06:47.001Z,4.83
2019-03-22T23:09:14.466Z,4.40
2019-03-22T23:11:41.910Z,8.30
2019-03-22T23:14:09.393Z,4.57
2019-03-22T23:16:36.827Z,5.00
2019-03-22T23:19:05.160Z,5.13
2019-03-22T23:21:32.738Z,4.77
2019-03-22T23:24:00.180Z,4.63
2019-03-22T23:26:27.651Z,4.23
2019-03-22T23:28:55.079Z,4.40
2019-03-22T23:31:22.535Z,6.67
2019-03-22T23:33:49.979Z,4.57
2019-03-22T23:36:20.542Z,4.37
2019-03-22T23:38:45.052Z,4.93
2019-03-22T23:41:12.493Z,4.87
2019-03-22T23:43:39.986Z,5.00
2019-03-22T23:46:07.465Z,4.43
2019-03-22T23:48:34.918Z,4.43
2019-03-22T23:51:02.421Z,5.23
2019-03-22T23:53:29.883Z,7.33
2019-03-22T23:55:57.356Z,5.37
2019-03-22T23:58:24.834Z,5.10
